Time;durP1;ratioP1;P1;durP2;ratioP2;P2;SDS_P1;SDS_P2;PMS_P1;PMS_P2;Temp;Humidity;BMP_temperature;BMP_pressure;BME280_temperature;BME280_humidity;BME280_pressure;Samples;Min_cycle;Max_cycle;Signal;HPM_P1;HPM_P2
2024/01/12 00:00:42;;;;;;;36.55;16.73;;;-4.80;99.90;;;-6.04;100.00;98446.22;4973140;28;20045;-36
2024/01/12 00:03:08;;;;;;;40.00;17.13;;;-4.80;99.90;;;-6.09;100.00;98427.16;4975610;28;20035;-36
2024/01/12 00:05:35;;;;;;;36.95;16.85;;;-4.80;99.90;;;-6.06;100.00;98439.28;4978314;28;20101;-36
2024/01/12 00:08:01;;;;;;;41.00;18.25;;;-4.80;99.90;;;-6.06;100.00;98441.84;4975431;28;20371;-36
2024/01/12 00:10:26;;;;;;;40.67;18.27;;;-4.90;99.90;;;-6.04;100.00;98441.09;4973660;28;20061;-36
2024/01/12 00:12:52;;;;;;;40.72;17.17;;;-4.80;99.90;;;-6.03;100.00;98447.09;4970922;28;20026;-36
2024/01/12 00:15:18;;;;;;;38.08;17.48;;;-4.90;99.90;;;-6.05;100.00;98449.59;4973944;28;20093;-36
2024/01/12 00:17:43;;;;;;;41.35;17.23;;;-4.90;99.90;;;-6.08;100.00;98441.78;4977545;28;20065;-36
2024/01/12 00:20:10;;;;;;;38.35;16.83;;;-4.90;99.90;;;-6.11;100.00;98443.31;4975636;28;20042;-36
2024/01/12 00:22:35;;;;;;;41.58;18.50;;;-4.90;99.90;;;-6.12;100.00;98450.13;4974066;28;20078;-36
2024/01/12 00:25:01;;;;;;;39.58;17.15;;;-4.90;99.90;;;-6.15;100.00;98440.63;4978058;28;20089;-36
2024/01/12 00:27:27;;;;;;;40.05;18.58;;;-4.90;99.90;;;-6.17;100.00;98438.78;4977144;28;20089;-36
2024/01/12 00:29:52;;;;;;;41.35;19.15;;;-5.00;99.90;;;-6.20;100.00;98444.66;4967504;28;20034;-36
2024/01/12 00:32:18;;;;;;;45.15;18.83;;;-5.00;99.90;;;-6.24;100.00;98439.34;4971235;28;20035;-36
2024/01/12 00:34:44;;;;;;;42.58;19.58;;;-5.10;99.90;;;-6.23;100.00;98436.81;4980625;28;20624;-36
2024/01/12 00:37:09;;;;;;;44.15;18.10;;;-5.10;99.90;;;-6.22;100.00;98438.56;4969697;28;20039;-36
2024/01/12 00:39:36;;;;;;;40.55;18.42;;;-5.00;99.90;;;-6.23;100.00;98441.94;4975456;28;20506;-36
2024/01/12 00:42:03;;;;;;;41.97;17.98;;;-5.00;99.90;;;-6.35;100.00;98426.88;4973550;28;20491;-36
2024/01/12 00:44:28;;;;;;;46.60;19.30;;;-5.00;99.90;;;-6.26;100.00;98449.53;4975079;28;20038;-36
2024/01/12 00:46:55;;;;;;;45.58;17.67;;;-5.10;99.90;;;-6.29;100.00;98448.50;4977535;28;20439;-36
2024/01/12 00:49:21;;;;;;;43.88;18.33;;;-5.10;99.90;;;-6.31;100.00;98448.44;4978624;28;20022;-36
2024/01/12 00:51:48;;;;;;;41.05;18.83;;;-5.10;99.90;;;-6.30;100.00;98450.16;4977150;28;20035;-36
2024/01/12 00:54:14;;;;;;;42.13;17.63;;;-5.10;99.90;;;-6.37;100.00;98435.28;4974946;28;20062;-36
2024/01/12 00:56:41;;;;;;;37.20;17.33;;;-5.10;99.90;;;-6.27;100.00;98446.88;4972846;28;20571;-36
2024/01/12 00:59:07;;;;;;;39.38;17.75;;;-5.10;99.90;;;-6.34;100.00;98441.44;4975857;28;20092;-36
2024/01/12 01:01:33;;;;;;;41.60;17.63;;;-5.10;99.90;;;-6.25;100.00;98446.13;4972333;28;20034;-36
2024/01/12 01:04:02;;;;;;;40.72;16.48;;;-5.10;99.90;;;-6.25;100.00;98441.00;4975976;28;20054;-36
2024/01/12 01:06:28;;;;;;;36.33;16.38;;;-5.00;99.90;;;-6.24;100.00;98444.47;4976612;28;20030;-36
2024/01/12 01:08:54;;;;;;;39.70;16.85;;;-5.00;99.90;;;-6.23;100.00;98453.91;4978687;28;20335;-36
2024/01/12 01:11:20;;;;;;;36.03;16.15;;;-5.00;99.90;;;-6.22;100.00;98455.69;4975985;28;20034;-35
2024/01/12 01:13:45;;;;;;;38.80;16.98;;;-5.10;99.90;;;-6.22;100.00;98451.41;4976887;28;20089;-36
2024/01/12 01:16:11;;;;;;;41.17;18.77;;;-5.00;99.90;;;-6.33;100.00;98444.91;4976517;28;20038;-36
2024/01/12 01:18:37;;;;;;;36.00;17.15;;;-5.10;99.90;;;-6.27;100.00;98455.44;4976357;28;20081;-36
2024/01/12 01:21:03;;;;;;;38.78;18.15;;;-5.10;99.90;;;-6.39;100.00;98436.91;4977226;28;20034;-36
2024/01/12 01:23:28;;;;;;;35.53;16.55;;;-5.10;99.90;;;-6.32;100.00;98456.06;4976873;28;20036;-36
2024/01/12 01:25:54;;;;;;;40.38;17.83;;;-5.10;99.90;;;-6.32;100.00;98456.94;4977032;28;20073;-36
2024/01/12 01:28:20;;;;;;;39.70;17.85;;;-5.10;99.90;;;-6.32;100.00;98472.31;4978366;28;20479;-36
2024/01/12 01:30:46;;;;;;;40.88;17.90;;;-5.10;99.90;;;-6.51;100.00;98437.25;4972292;28;20498;-36
2024/01/12 01:33:12;;;;;;;39.92;17.85;;;-5.10;99.90;;;-6.55;100.00;98431.09;4975694;28;20046;-36
2024/01/12 01:35:37;;;;;;;38.45;18.63;;;-5.10;99.90;;;-6.35;100.00;98467.94;4975237;28;20034;-36
2024/01/12 01:38:03;;;;;;;42.95;18.17;;;-5.10;99.90;;;-6.30;100.00;98467.28;4976427;28;20213;-36
2024/01/12 01:40:29;;;;;;;45.83;19.30;;;-5.10;99.90;;;-6.35;100.00;98473.09;4972333;28;20038;-36
2024/01/12 01:42:55;;;;;;;40.47;17.58;;;-5.10;99.90;;;-6.35;100.00;98470.50;4976331;28;20030;-36
2024/01/12 01:45:21;;;;;;;41.40;17.40;;;-5.10;99.90;;;-6.33;100.00;98478.28;4977068;28;20585;-36
2024/01/12 01:47:47;;;;;;;42.80;17.98;;;-5.10;99.90;;;-6.44;100.00;98461.47;4970705;28;20034;-36
2024/01/12 01:50:15;;;;;;;41.47;17.95;;;-5.10;99.90;;;-6.38;100.00;98475.50;4975405;28;20835;-36
2024/01/12 01:52:43;;;;;;;42.40;18.45;;;-5.20;99.90;;;-6.37;100.00;98469.56;4973595;28;20049;-36
2024/01/12 01:55:11;;;;;;;39.55;17.30;;;-5.20;99.90;;;-6.43;100.00;98466.69;4971300;28;20041;-36
2024/01/12 01:57:39;;;;;;;41.03;18.33;;;-5.20;99.90;;;-6.38;100.00;98467.78;4968752;28;20045;-36
2024/01/12 02:00:05;;;;;;;37.13;17.90;;;-5.20;99.90;;;-6.41;100.00;98471.91;4974170;28;20031;-36
2024/01/12 02:02:31;;;;;;;40.35;18.10;;;-5.20;99.90;;;-6.59;100.00;98441.13;4972455;28;20506;-36
2024/01/12 02:05:00;;;;;;;41.10;18.15;;;-5.20;99.90;;;-6.45;100.00;98460.63;4975979;28;20034;-36
2024/01/12 02:07:26;;;;;;;47.42;18.15;;;-5.30;99.90;;;-6.43;100.00;98469.25;4976511;28;20076;-36
2024/01/12 02:09:52;;;;;;;42.80;18.58;;;-5.20;99.90;;;-6.52;100.00;98456.88;4975066;28;20544;-36
2024/01/12 02:12:18;;;;;;;43.78;18.70;;;-5.20;99.90;;;-6.45;100.00;98470.88;4976108;28;20173;-36
2024/01/12 02:14:44;;;;;;;46.33;18.83;;;-5.30;99.90;;;-6.50;100.00;98461.22;4976285;28;20042;-36
2024/01/12 02:17:10;;;;;;;40.22;17.25;;;-5.30;99.90;;;-6.48;100.00;98465.59;4979391;28;20025;-36
2024/01/12 02:19:35;;;;;;;39.58;17.88;;;-5.30;99.90;;;-6.47;100.00;98462.22;4973044;28;20109;-36
2024/01/12 02:22:01;;;;;;;39.63;18.35;;;-5.30;99.90;;;-6.51;100.00;98455.22;4985037;28;20038;-36
2024/01/12 02:24:27;;;;;;;43.17;18.27;;;-5.30;99.90;;;-6.55;100.00;98450.72;4976402;28;20315;-36
2024/01/12 02:26:53;;;;;;;36.80;17.50;;;-5.30;99.90;;;-6.50;100.00;98468.91;4975260;28;20718;-37
2024/01/12 02:29:19;;;;;;;41.75;17.27;;;-5.30;99.90;;;-6.53;100.00;98461.97;4977669;28;20062;-38
2024/01/12 02:31:46;;;;;;;38.70;17.70;;;-5.30;99.90;;;-6.56;100.00;98454.09;4974048;28;20069;-36
2024/01/12 02:34:14;;;;;;;39.95;16.98;;;-5.30;99.90;;;-6.56;100.00;98441.28;4973885;28;20034;-37
2024/01/12 02:36:39;;;;;;;33.92;16.95;;;-5.30;99.90;;;-6.49;100.00;98455.28;4973538;28;20483;-36
2024/01/12 02:39:05;;;;;;;37.88;17.00;;;-5.30;99.90;;;-6.55;100.00;98436.22;4978584;28;20046;-37
2024/01/12 02:41:31;;;;;;;38.53;16.92;;;-5.20;99.90;;;-6.47;100.00;98439.13;4977857;28;20034;-36
2024/01/12 02:43:57;;;;;;;40.05;17.08;;;-5.20;99.90;;;-6.49;100.00;98430.50;4974778;28;20431;-36
2024/01/12 02:46:24;;;;;;;37.92;17.13;;;-5.20;99.90;;;-6.38;100.00;98437.00;4966079;28;20080;-36
2024/01/12 02:48:50;;;;;;;36.85;16.85;;;-5.10;99.90;;;-6.31;100.00;98439.84;4974102;28;20737;-37
2024/01/12 02:51:16;;;;;;;35.13;16.38;;;-5.10;99.90;;;-6.29;100.00;98440.81;4974806;28;20033;-36
2024/01/12 02:53:42;;;;;;;36.05;17.48;;;-5.10;99.90;;;-6.32;100.00;98422.69;4973690;28;20046;-36
2024/01/12 02:56:07;;;;;;;41.05;17.65;;;-5.10;99.90;;;-6.26;100.00;98422.94;4975363;28;20045;-36
2024/01/12 02:58:33;;;;;;;38.40;16.60;;;-5.00;99.90;;;-6.21;100.00;98432.66;4978595;28;20125;-36
2024/01/12 03:00:59;;;;;;;33.83;16.45;;;-5.00;99.90;;;-6.27;100.00;98427.22;4977953;28;20026;-36
2024/01/12 03:03:25;;;;;;;39.15;17.45;;;-5.00;99.90;;;-6.26;100.00;98420.38;4973857;28;20105;-37
2024/01/12 03:05:51;;;;;;;37.50;16.23;;;-5.00;99.90;;;-6.26;100.00;98421.28;4972691;28;20446;-36
2024/01/12 03:08:16;;;;;;;37.15;15.98;;;-5.00;99.90;;;-6.22;100.00;98432.56;4973665;28;20054;-36
2024/01/12 03:10:42;;;;;;;36.72;16.50;;;-5.00;99.90;;;-6.24;100.00;98440.19;4972958;28;20081;-36
2024/01/12 03:13:08;;;;;;;36.55;16.05;;;-5.10;99.90;;;-6.31;100.00;98433.03;4974746;28;20034;-35
2024/01/12 03:15:33;;;;;;;35.97;15.77;;;-5.10;99.90;;;-6.29;100.00;98441.66;4952234;28;20034;-36
2024/01/12 03:17:59;;;;;;;36.53;16.20;;;-5.10;99.90;;;-6.35;100.00;98426.88;4969524;28;20038;-36
2024/01/12 03:20:25;;;;;;;42.50;17.33;;;-5.10;99.90;;;-6.36;100.00;98427.66;4968955;28;20529;-36
2024/01/12 03:22:51;;;;;;;32.10;15.23;;;-5.10;99.90;;;-6.39;100.00;98437.81;4978060;28;20092;-36
2024/01/12 03:25:17;;;;;;;38.08;16.65;;;-5.20;99.90;;;-6.43;100.00;98427.31;4975382;28;20030;-36
2024/01/12 03:27:43;;;;;;;35.60;16.80;;;-5.20;99.90;;;-6.48;100.00;98432.22;4977645;28;20026;-36
2024/01/12 03:30:09;;;;;;;34.78;16.42;;;-5.30;99.90;;;-6.48;100.00;98441.63;4977738;28;20125;-36
2024/01/12 03:32:35;;;;;;;41.90;17.58;;;-5.30;99.90;;;-6.59;100.00;98433.44;4973349;28;20050;-36
2024/01/12 03:35:02;;;;;;;38.67;17.23;;;-5.40;99.90;;;-6.66;100.00;98424.53;4973899;28;20045;-36
2024/01/12 03:37:27;;;;;;;34.10;16.08;;;-5.40;99.90;;;-6.64;100.00;98440.03;4977952;28;20038;-36
2024/01/12 03:39:53;;;;;;;31.95;15.73;;;-5.40;99.90;;;-6.73;100.00;98419.94;4977969;28;20358;-36
2024/01/12 03:42:19;;;;;;;37.53;16.60;;;-5.50;99.90;;;-6.72;100.00;98434.53;4978043;28;20081;-36
2024/01/12 03:44:44;;;;;;;38.95;16.25;;;-5.50;99.90;;;-6.78;100.00;98440.25;4978211;28;20360;-36
2024/01/12 03:47:10;;;;;;;36.33;15.57;;;-5.50;99.90;;;-6.96;100.00;98413.75;4973539;28;20033;-36
2024/01/12 03:49:36;;;;;;;31.75;15.23;;;-5.60;99.90;;;-6.85;100.00;98445.91;4976037;28;20031;-36
2024/01/12 03:52:03;;;;;;;40.28;17.10;;;-5.60;99.90;;;-6.93;100.00;98442.97;4970406;28;20033;-36
2024/01/12 03:54:29;;;;;;;38.83;16.63;;;-5.60;99.90;;;-6.96;100.00;98444.50;4975011;28;20168;-36
2024/01/12 03:56:55;;;;;;;34.28;16.50;;;-5.60;99.90;;;-7.00;100.00;98450.28;4973226;28;20030;-36
2024/01/12 03:59:20;;;;;;;38.45;16.63;;;-5.70;99.90;;;-7.10;100.00;98431.00;4969637;28;20089;-37
2024/01/12 04:01:47;;;;;;;38.00;16.30;;;-5.70;99.90;;;-7.11;100.00;98437.81;4970632;28;20038;-37
2024/01/12 04:04:13;;;;;;;41.92;17.00;;;-5.80;99.90;;;-7.12;100.00;98440.31;4972349;28;20067;-36
2024/01/12 04:06:42;;;;;;;40.38;16.55;;;-5.80;99.90;;;-7.14;100.00;98441.91;4973736;28;20488;-37
2024/01/12 04:09:12;;;;;;;35.67;16.42;;;-5.80;99.90;;;-7.18;100.00;98438.31;4972461;28;20411;-37
2024/01/12 04:11:38;;;;;;;33.53;16.02;;;-5.80;99.90;;;-7.26;100.00;98426.81;4973680;28;20054;-36
2024/01/12 04:14:04;;;;;;;40.70;17.20;;;-5.90;99.90;;;-7.21;100.00;98438.19;4968726;28;20045;-36
2024/01/12 04:16:30;;;;;;;33.33;15.73;;;-6.00;99.90;;;-7.28;100.00;98425.88;4977032;28;20034;-36
2024/01/12 04:18:56;;;;;;;34.83;16.45;;;-6.00;99.90;;;-7.41;100.00;98406.44;4974016;28;20030;-37
2024/01/12 04:21:22;;;;;;;40.75;15.85;;;-6.00;99.90;;;-7.38;100.00;98418.50;4971838;28;20129;-37
2024/01/12 04:23:47;;;;;;;39.33;16.98;;;-6.00;99.90;;;-7.30;100.00;98442.84;4976437;28;20034;-36
2024/01/12 04:26:13;;;;;;;37.17;17.73;;;-6.00;99.90;;;-7.32;100.00;98440.22;4976090;28;20042;-36
2024/01/12 04:28:39;;;;;;;43.58;18.40;;;-6.00;99.90;;;-7.29;100.00;98448.03;4988228;28;20125;-37
2024/01/12 04:31:05;;;;;;;42.33;19.60;;;-6.00;99.90;;;-7.29;100.00;98442.03;4971728;28;20181;-37
2024/01/12 04:33:33;;;;;;;43.65;18.45;;;-6.00;99.90;;;-7.37;100.00;98425.41;4974100;28;20710;-36
2024/01/12 04:35:59;;;;;;;51.15;20.83;;;-6.10;99.90;;;-7.32;100.00;98447.00;4975441;28;20080;-36
2024/01/12 04:38:26;;;;;;;46.53;19.33;;;-6.10;99.90;;;-7.37;100.00;98433.97;4975535;28;20061;-37
2024/01/12 04:40:53;;;;;;;58.65;22.52;;;-6.10;99.90;;;-7.36;100.00;98447.66;4975393;28;20042;-36
2024/01/12 04:43:19;;;;;;;50.25;21.80;;;-6.10;99.90;;;-7.39;100.00;98462.88;4977332;28;20030;-36
2024/01/12 04:45:45;;;;;;;52.22;21.63;;;-6.10;99.90;;;-7.43;100.00;98449.03;4975966;28;20066;-36
2024/01/12 04:48:11;;;;;;;50.92;21.92;;;-6.20;99.90;;;-7.49;100.00;98449.59;4969805;28;20169;-36
2024/01/12 04:50:37;;;;;;;50.25;21.88;;;-6.20;99.90;;;-7.52;100.00;98440.88;4971702;28;20126;-36
2024/01/12 04:53:02;;;;;;;60.13;23.30;;;-6.20;99.90;;;-7.44;100.00;98460.09;4969542;28;20127;-36
2024/01/12 04:55:28;;;;;;;48.55;21.70;;;-6.20;99.90;;;-7.44;100.00;98470.34;4975572;28;20038;-37
2024/01/12 04:57:54;;;;;;;50.63;22.38;;;-6.20;99.90;;;-7.50;100.00;98464.88;4975555;28;20022;-36
2024/01/12 05:00:20;;;;;;;49.85;20.38;;;-6.20;99.90;;;-7.59;100.00;98464.41;4972572;28;20766;-36
2024/01/12 05:02:46;;;;;;;53.70;22.85;;;-6.30;99.90;;;-7.57;100.00;98470.50;4975646;28;20038;-36
2024/01/12 05:05:12;;;;;;;51.92;22.27;;;-6.20;99.90;;;-7.59;100.00;98464.41;4956657;28;20198;-37
2024/01/12 05:07:38;;;;;;;54.72;24.13;;;-6.20;99.90;;;-7.53;100.00;98478.44;4965332;28;20038;-37
2024/01/12 05:10:05;;;;;;;53.65;22.98;;;-6.30;99.90;;;-7.55;100.00;98481.75;4962775;28;20041;-35
2024/01/12 05:12:30;;;;;;;54.95;22.67;;;-6.30;99.90;;;-7.59;100.00;98477.22;4989908;28;20053;-36
2024/01/12 05:14:56;;;;;;;47.97;22.63;;;-6.30;99.90;;;-7.64;100.00;98481.25;4974075;28;20562;-36
2024/01/12 05:17:25;;;;;;;56.20;22.67;;;-6.30;99.90;;;-7.66;100.00;98483.75;4980268;28;20072;-36
2024/01/12 05:19:50;;;;;;;50.28;22.02;;;-6.40;99.90;;;-7.67;100.00;98481.97;4975514;28;20702;-35
2024/01/12 05:22:16;;;;;;;53.45;23.17;;;-6.40;99.90;;;-7.68;100.00;98475.97;4970697;28;20223;-35
2024/01/12 05:24:42;;;;;;;53.97;21.27;;;-6.40;99.90;;;-7.65;100.00;98497.44;4977625;28;20306;-35
2024/01/12 05:27:08;;;;;;;53.97;22.48;;;-6.40;99.90;;;-7.69;100.00;98499.81;4979501;28;20391;-36
2024/01/12 05:29:34;;;;;;;52.97;21.65;;;-6.40;99.90;;;-7.72;100.00;98497.09;4974472;28;20034;-36
2024/01/12 05:32:01;;;;;;;56.13;22.80;;;-6.40;99.90;;;-7.68;100.00;98499.03;4982366;28;20113;-37
2024/01/12 05:34:27;;;;;;;52.88;21.88;;;-6.40;99.90;;;-7.70;100.00;98484.38;4977400;28;20042;-35
2024/01/12 05:36:53;;;;;;;51.20;22.00;;;-6.40;99.90;;;-7.69;100.00;98486.13;4980345;28;21622;-35
2024/01/12 05:39:19;;;;;;;57.95;23.70;;;-6.40;99.90;;;-7.69;100.00;98476.75;4969546;28;20046;-36
2024/01/12 05:41:45;;;;;;;49.90;21.15;;;-6.40;99.90;;;-7.65;100.00;98472.69;4976590;28;20136;-35
2024/01/12 05:44:11;;;;;;;52.30;20.33;;;-6.40;99.90;;;-7.60;100.00;98470.38;4970354;28;20044;-36
2024/01/12 05:46:40;;;;;;;46.15;19.70;;;-6.40;99.90;;;-7.68;100.00;98464.81;4972079;28;20513;-36
2024/01/12 05:49:06;;;;;;;50.58;20.88;;;-6.30;99.90;;;-7.61;100.00;98477.16;4970872;28;20738;-35
2024/01/12 05:51:31;;;;;;;46.65;21.25;;;-6.30;99.90;;;-7.64;100.00;98464.22;4971044;28;20480;-36
2024/01/12 05:53:57;;;;;;;49.00;21.52;;;-6.40;99.90;;;-7.69;100.00;98463.09;4975546;28;20784;-35
2024/01/12 05:56:23;;;;;;;49.65;22.67;;;-6.30;99.90;;;-7.61;100.00;98473.72;4972027;28;20042;-35
2024/01/12 05:58:50;;;;;;;48.08;21.83;;;-6.40;99.90;;;-7.67;100.00;98467.47;4972601;28;20069;-35
2024/01/12 06:01:17;;;;;;;58.88;24.17;;;-6.30;99.90;;;-7.61;100.00;98483.97;4971794;28;20034;-35
2024/01/12 06:03:45;;;;;;;55.85;23.95;;;-6.30;99.90;;;-7.60;100.00;98473.81;4967532;28;20468;-36
2024/01/12 06:06:11;;;;;;;52.33;22.92;;;-6.30;99.90;;;-7.61;100.00;98473.72;4964383;28;20030;-35
2024/01/12 06:08:37;;;;;;;56.90;23.02;;;-6.40;99.90;;;-7.57;100.00;98481.66;4972981;28;20096;-36
2024/01/12 06:11:03;;;;;;;56.97;23.27;;;-6.30;99.90;;;-7.58;100.00;98467.06;4962848;28;20034;-36
2024/01/12 06:13:29;;;;;;;48.97;23.35;;;-6.30;99.90;;;-7.62;100.00;98456.59;4968295;28;20038;-36
2024/01/12 06:15:55;;;;;;;49.15;22.70;;;-6.30;99.90;;;-7.58;100.00;98461.06;4967855;28;20034;-35
2024/01/12 06:18:21;;;;;;;52.60;23.13;;;-6.30;99.90;;;-7.59;100.00;98465.31;4970587;28;20495;-35
2024/01/12 06:20:47;;;;;;;51.05;22.83;;;-6.30;99.90;;;-7.77;100.00;98438.75;4975615;28;20034;-35
2024/01/12 06:23:13;;;;;;;54.63;23.27;;;-6.30;99.90;;;-7.58;100.00;98474.75;4974094;28;20041;-35
2024/01/12 06:25:39;;;;;;;52.75;21.58;;;-6.30;99.90;;;-7.78;100.00;98445.56;4973494;28;20224;-35
2024/01/12 06:28:05;;;;;;;52.65;23.50;;;-6.30;99.90;;;-7.62;100.00;98477.97;4973065;28;20034;-35
2024/01/12 06:30:31;;;;;;;58.05;23.60;;;-6.30;99.90;;;-7.60;100.00;98470.38;4969902;28;20030;-36
2024/01/12 06:32:58;;;;;;;59.92;25.67;;;-6.30;99.90;;;-7.60;100.00;98468.69;4982152;28;20121;-36
2024/01/12 06:35:24;;;;;;;56.92;24.73;;;-6.30;99.90;;;-7.63;100.00;98459.97;4976214;28;20382;-36
2024/01/12 06:37:50;;;;;;;55.67;24.33;;;-6.30;99.90;;;-7.70;100.00;98454.53;4973542;28;20034;-36
2024/01/12 06:40:17;;;;;;;57.10;24.08;;;-6.40;99.90;;;-7.71;100.00;98450.19;4977544;28;20534;-36
2024/01/12 06:42:42;;;;;;;57.72;23.95;;;-6.40;99.90;;;-7.69;100.00;98458.84;4974339;28;20040;-36
2024/01/12 06:45:10;;;;;;;55.83;24.38;;;-6.40;99.90;;;-7.65;100.00;98457.31;4965769;28;20022;-36
2024/01/12 06:47:36;;;;;;;52.70;22.83;;;-6.30;99.90;;;-7.69;100.00;98443.47;4970795;28;20030;-36
2024/01/12 06:50:02;;;;;;;59.70;23.25;;;-6.40;99.90;;;-7.69;100.00;98458.84;4977466;28;20045;-36
2024/01/12 06:52:30;;;;;;;57.85;24.17;;;-6.40;99.90;;;-7.63;100.00;98463.38;4960293;28;20653;-36
2024/01/12 06:54:56;;;;;;;54.65;23.33;;;-6.40;99.90;;;-7.71;100.00;98446.75;4968435;28;20038;-36
2024/01/12 06:57:22;;;;;;;52.47;22.40;;;-6.40;99.90;;;-7.74;100.00;98446.59;4973213;28;20030;-36
2024/01/12 06:59:47;;;;;;;55.75;23.55;;;-6.40;99.90;;;-7.70;100.00;98444.28;4976953;28;20550;-36
2024/01/12 07:02:14;;;;;;;59.97;23.67;;;-6.40;99.90;;;-7.63;100.00;98454.84;4972915;28;20038;-36
2024/01/12 07:04:40;;;;;;;50.25;21.05;;;-6.40;99.90;;;-7.66;100.00;98455.56;4972558;28;20108;-36
2024/01/12 07:07:08;;;;;;;48.70;22.45;;;-6.40;99.90;;;-7.64;100.00;98466.78;4976777;28;20452;-36
2024/01/12 07:09:33;;;;;;;50.75;21.35;;;-6.40;99.90;;;-7.63;100.00;98471.06;4976468;28;20045;-36
2024/01/12 07:11:59;;;;;;;52.80;21.35;;;-6.40;99.90;;;-7.62;100.00;98472.84;4976735;28;20034;-36
2024/01/12 07:14:24;;;;;;;50.78;21.52;;;-6.30;99.90;;;-7.64;100.00;98463.31;4974670;28;20081;-36
2024/01/12 07:16:50;;;;;;;49.53;21.05;;;-6.30;99.90;;;-7.60;100.00;98471.25;4970537;28;20539;-36
2024/01/12 07:19:16;;;;;;;54.47;23.02;;;-6.30;99.90;;;-7.78;100.00;98437.00;4976865;28;20117;-36
2024/01/12 07:21:42;;;;;;;52.42;21.00;;;-6.30;99.90;;;-7.71;100.00;98439.06;4973872;28;20046;-36
2024/01/12 07:24:08;;;;;;;53.42;21.83;;;-6.30;99.90;;;-7.70;100.00;98445.94;4971172;28;20037;-35
2024/01/12 07:26:33;;;;;;;49.33;21.20;;;-6.30;99.90;;;-7.61;100.00;98463.47;4975671;28;20022;-37
2024/01/12 07:29:00;;;;;;;47.22;20.95;;;-6.20;99.90;;;-7.58;100.00;98466.19;4969884;28;20377;-36
2024/01/12 07:31:26;;;;;;;53.92;21.92;;;-6.20;99.90;;;-7.52;100.00;98469.97;4975077;28;20049;-37
2024/01/12 07:33:52;;;;;;;52.10;23.02;;;-6.20;99.90;;;-7.49;100.00;98467.53;4975272;28;20042;-36
2024/01/12 07:36:18;;;;;;;54.10;21.92;;;-6.20;99.90;;;-7.46;100.00;98468.50;4978192;28;20053;-36
2024/01/12 07:38:43;;;;;;;52.55;21.95;;;-6.20;99.90;;;-7.43;100.00;98471.22;4976352;28;20030;-36
2024/01/12 07:41:09;;;;;;;54.83;21.92;;;-6.10;99.90;;;-7.43;100.00;98468.66;4976672;28;20099;-36
2024/01/12 07:43:35;;;;;;;50.97;21.17;;;-6.10;99.90;;;-7.33;100.00;98478.56;4976251;28;20038;-36
2024/01/12 07:46:00;;;;;;;57.58;22.38;;;-6.10;99.90;;;-7.30;100.00;98476.19;4967917;28;20031;-36
2024/01/12 07:48:26;;;;;;;50.88;22.23;;;-6.00;99.90;;;-7.29;100.00;98476.22;4972794;28;20038;-36
2024/01/12 07:50:55;;;;;;;48.65;21.63;;;-6.00;99.90;;;-7.21;100.00;98488.53;4970378;28;20030;-35
2024/01/12 07:53:20;;;;;;;51.72;22.38;;;-6.00;99.90;;;-7.18;100.00;98496.41;4968120;28;20157;-35
2024/01/12 07:55:47;;;;;;;51.15;21.95;;;-5.90;99.90;;;-7.22;100.00;98474.84;4972907;28;20042;-36
2024/01/12 07:58:13;;;;;;;51.80;21.38;;;-5.80;99.90;;;-7.06;100.00;98496.16;4975781;28;20087;-36
2024/01/12 08:00:38;;;;;;;55.53;22.17;;;-5.80;99.90;;;-7.07;100.00;98486.69;4977687;28;20046;-36
2024/01/12 08:03:04;;;;;;;48.13;20.65;;;-5.80;99.90;;;-6.99;100.00;98493.09;4973641;28;20744;-36
2024/01/12 08:05:30;;;;;;;50.20;22.13;;;-5.70;99.90;;;-6.97;100.00;98494.03;4975598;28;20030;-36
2024/01/12 08:07:55;;;;;;;49.55;22.08;;;-5.70;99.90;;;-7.04;100.00;98484.28;4975714;28;20030;-36
2024/01/12 08:10:21;;;;;;;54.70;22.17;;;-5.70;99.90;;;-7.01;100.00;98490.44;4975761;28;20039;-36
2024/01/12 08:12:48;;;;;;;49.15;22.00;;;-5.70;99.90;;;-6.98;100.00;98495.72;4976501;28;20041;-36
2024/01/12 08:15:14;;;;;;;53.88;22.80;;;-5.70;99.90;;;-6.99;100.00;98493.94;4984133;28;20030;-36
2024/01/12 08:17:41;;;;;;;49.35;23.52;;;-5.60;99.90;;;-7.06;100.00;98491.03;4976139;28;20662;-36
2024/01/12 08:20:07;;;;;;;54.55;23.85;;;-5.60;99.90;;;-7.00;100.00;98501.56;4978697;28;20034;-36
2024/01/12 08:22:33;;;;;;;53.13;21.90;;;-5.60;99.90;;;-7.00;100.00;98496.44;4983271;28;20022;-35
2024/01/12 08:25:00;;;;;;;50.28;22.35;;;-5.60;99.90;;;-7.03;100.00;98502.31;4980934;28;20030;-36
2024/01/12 08:27:26;;;;;;;53.40;20.83;;;-5.60;99.90;;;-7.03;100.00;98501.41;4980430;28;20471;-36
2024/01/12 08:29:52;;;;;;;53.42;21.67;;;-5.60;99.90;;;-7.01;100.00;98517.78;4978910;28;20109;-36
2024/01/12 08:32:18;;;;;;;45.83;21.88;;;-5.60;99.90;;;-7.03;100.00;98512.56;4979355;28;20038;-36
2024/01/12 08:34:44;;;;;;;56.28;22.33;;;-5.70;99.90;;;-7.03;100.00;98527.97;4979539;28;20368;-36
2024/01/12 08:37:10;;;;;;;52.35;23.00;;;-5.60;99.90;;;-6.97;100.00;98530.81;4978471;28;20495;-36
2024/01/12 08:39:35;;;;;;;58.47;23.90;;;-5.60;99.90;;;-6.92;100.00;98546.44;4976340;28;20372;-35
2024/01/12 08:42:02;;;;;;;52.85;23.63;;;-5.60;99.90;;;-6.93;100.00;98547.22;4979401;28;20057;-36
2024/01/12 08:44:27;;;;;;;48.65;23.55;;;-5.60;99.90;;;-6.95;100.00;98543.72;4976394;28;20085;-35
2024/01/12 08:46:53;;;;;;;52.55;23.33;;;-5.60;99.90;;;-6.96;100.00;98547.09;4975181;28;20676;-36
2024/01/12 08:49:20;;;;;;;68.63;25.85;;;-5.50;99.90;;;-6.91;100.00;98554.22;4981763;28;20041;-35
2024/01/12 08:51:48;;;;;;;61.78;25.58;;;-5.50;99.90;;;-6.85;100.00;98551.06;4976545;28;20038;-35
2024/01/12 08:54:13;;;;;;;60.05;24.52;;;-5.50;99.90;;;-6.82;100.00;98542.63;4978015;28;20092;-35
2024/01/12 08:56:39;;;;;;;60.90;24.23;;;-5.50;99.90;;;-6.76;100.00;98555.78;4974859;28;20034;-36
2024/01/12 08:59:05;;;;;;;50.80;23.23;;;-5.40;99.90;;;-6.65;100.00;98559.75;4979638;28;20035;-35
2024/01/12 09:01:30;;;;;;;50.03;22.50;;;-5.40;99.90;;;-6.67;100.00;98555.38;4976826;28;20065;-35
2024/01/12 09:03:56;;;;;;;54.45;24.63;;;-5.40;99.90;;;-6.75;100.00;98537.91;4977260;28;20553;-35
2024/01/12 09:06:23;;;;;;;60.67;24.80;;;-5.30;99.90;;;-6.63;100.00;98555.56;4979512;28;20073;-35
2024/01/12 09:08:50;;;;;;;69.68;26.52;;;-5.30;99.90;;;-6.61;100.00;98553.09;4978079;28;21331;-35
2024/01/12 09:11:16;;;;;;;58.67;25.58;;;-5.20;99.90;;;-6.62;100.00;98548.75;4979448;28;20313;-35
2024/01/12 09:13:41;;;;;;;55.40;25.35;;;-5.20;99.90;;;-6.57;100.00;98555.91;4973920;28;20039;-35
2024/01/12 09:16:11;;;;;;;65.00;26.55;;;-5.20;99.90;;;-6.49;100.00;98568.22;4979447;28;20036;-35
2024/01/12 09:18:37;;;;;;;57.15;25.00;;;-5.20;99.90;;;-6.45;100.00;98563.28;4973346;28;20045;-35
2024/01/12 09:21:03;;;;;;;56.95;24.00;;;-5.10;99.90;;;-6.41;100.00;98554.06;4973991;28;20346;-35
2024/01/12 09:23:29;;;;;;;63.58;26.55;;;-5.10;99.90;;;-6.41;100.00;98559.19;4975412;28;20053;-35
2024/01/12 09:25:55;;;;;;;62.10;26.55;;;-5.00;99.90;;;-6.28;100.00;98565.78;4978956;28;20050;-35
2024/01/12 09:28:21;;;;;;;62.83;26.80;;;-5.00;99.90;;;-6.26;100.00;98571.88;4974672;28;20200;-35
2024/01/12 09:30:47;;;;;;;56.20;24.92;;;-4.90;99.90;;;-6.14;100.00;98572.47;4970361;28;20030;-35
2024/01/12 09:33:14;;;;;;;66.80;27.88;;;-4.90;99.90;;;-6.20;100.00;98569.63;4968590;28;22509;-35
2024/01/12 09:35:40;;;;;;;65.00;27.95;;;-4.90;99.90;;;-6.30;100.00;98554.56;4966367;28;20550;-35
2024/01/12 09:38:06;;;;;;;67.05;27.48;;;-4.80;99.90;;;-6.15;100.00;98568.16;4978356;28;20062;-34
2024/01/12 09:40:33;;;;;;;63.78;26.23;;;-4.80;99.90;;;-6.08;100.00;98565.06;4971989;28;20133;-36
2024/01/12 09:43:00;;;;;;;68.32;28.48;;;-4.70;99.90;;;-5.99;100.00;98583.47;4977460;28;20118;-36
2024/01/12 09:45:26;;;;;;;63.50;27.88;;;-4.70;99.90;;;-6.03;100.00;98570.41;4972518;28;20443;-36
2024/01/12 09:47:53;;;;;;;59.45;26.85;;;-4.60;99.90;;;-5.90;100.00;98575.28;4972728;28;20688;-36
2024/01/12 09:50:22;;;;;;;59.97;26.45;;;-4.60;99.90;;;-5.84;100.00;98583.25;4977501;28;20113;-37
2024/01/12 09:52:51;;;;;;;64.45;26.98;;;-4.60;99.90;;;-5.68;100.00;98589.13;4975167;28;20395;-36
2024/01/12 09:55:17;;;;;;;62.45;26.77;;;-4.50;99.90;;;-5.67;100.00;98575.44;4973107;28;20031;-36